sensor_id;sensor_type;location;lat;lon;timestamp;P1;durP1;ratioP1;P2;durP2;ratioP2
76423;SDS011;65257;52.104;4.268;2023-05-06T00:02:43;23.65;;;13.73;;
76423;SDS011;65257;52.104;4.268;2023-05-06T00:05:09;27.73;;;14.05;;
76423;SDS011;65257;52.104;4.268;2023-05-06T00:07:35;25.67;;;13.23;;
76423;SDS011;65257;52.104;4.268;2023-05-06T00:10:04;28.05;;;13.57;;
76423;SDS011;65257;52.104;4.268;2023-05-06T00:12:32;23.55;;;14.13;;
76423;SDS011;65257;52.104;4.268;2023-05-06T00:15:02;23.58;;;13.68;;
76423;SDS011;65257;52.104;4.268;2023-05-06T00:17:33;26.20;;;13.98;;
76423;SDS011;65257;52.104;4.268;2023-05-06T00:19:59;25.63;;;14.82;;
76423;SDS011;65257;52.104;4.268;2023-05-06T00:22:24;25.60;;;13.32;;
76423;SDS011;65257;52.104;4.268;2023-05-06T00:24:50;25.95;;;13.65;;
76423;SDS011;65257;52.104;4.268;2023-05-06T00:27:15;26.70;;;13.60;;
76423;SDS011;65257;52.104;4.268;2023-05-06T00:29:41;25.80;;;13.65;;
76423;SDS011;65257;52.104;4.268;2023-05-06T00:32:06;26.55;;;13.88;;
76423;SDS011;65257;52.104;4.268;2023-05-06T00:34:32;28.15;;;15.20;;
76423;SDS011;65257;52.104;4.268;2023-05-06T00:36:57;24.92;;;14.85;;
76423;SDS011;65257;52.104;4.268;2023-05-06T00:39:23;24.40;;;14.52;;
76423;SDS011;65257;52.104;4.268;2023-05-06T00:41:49;22.42;;;13.43;;
76423;SDS011;65257;52.104;4.268;2023-05-06T00:44:15;25.00;;;13.27;;
76423;SDS011;65257;52.104;4.268;2023-05-06T00:46:41;26.27;;;15.07;;
76423;SDS011;65257;52.104;4.268;2023-05-06T00:49:07;24.25;;;14.10;;
76423;SDS011;65257;52.104;4.268;2023-05-06T00:51:33;27.58;;;15.90;;
76423;SDS011;65257;52.104;4.268;2023-05-06T00:54:00;27.02;;;14.35;;
76423;SDS011;65257;52.104;4.268;2023-05-06T00:56:27;24.95;;;15.18;;
76423;SDS011;65257;52.104;4.268;2023-05-06T00:58:53;23.85;;;14.55;;
76423;SDS011;65257;52.104;4.268;2023-05-06T01:01:19;26.00;;;14.75;;
76423;SDS011;65257;52.104;4.268;2023-05-06T01:03:46;26.05;;;15.23;;
76423;SDS011;65257;52.104;4.268;2023-05-06T01:06:22;24.98;;;14.63;;
76423;SDS011;65257;52.104;4.268;2023-05-06T01:09:27;23.83;;;13.57;;
76423;SDS011;65257;52.104;4.268;2023-05-06T01:14:51;25.48;;;16.42;;
76423;SDS011;65257;52.104;4.268;2023-05-06T01:17:25;24.25;;;14.73;;
76423;SDS011;65257;52.104;4.268;2023-05-06T01:19:54;25.88;;;14.85;;
76423;SDS011;65257;52.104;4.268;2023-05-06T01:22:22;26.83;;;16.75;;
76423;SDS011;65257;52.104;4.268;2023-05-06T01:24:50;27.17;;;16.00;;
76423;SDS011;65257;52.104;4.268;2023-05-06T01:27:16;26.10;;;15.23;;
76423;SDS011;65257;52.104;4.268;2023-05-06T01:29:44;26.88;;;15.90;;
76423;SDS011;65257;52.104;4.268;2023-05-06T01:37:20;25.75;;;15.05;;
76423;SDS011;65257;52.104;4.268;2023-05-06T01:42:32;29.98;;;17.17;;
76423;SDS011;65257;52.104;4.268;2023-05-06T01:44:59;24.65;;;15.02;;
76423;SDS011;65257;52.104;4.268;2023-05-06T01:47:27;27.40;;;16.75;;
76423;SDS011;65257;52.104;4.268;2023-05-06T01:49:52;28.27;;;15.90;;
76423;SDS011;65257;52.104;4.268;2023-05-06T01:52:19;31.15;;;16.35;;
76423;SDS011;65257;52.104;4.268;2023-05-06T01:54:46;31.17;;;15.90;;
76423;SDS011;65257;52.104;4.268;2023-05-06T01:57:11;29.05;;;16.83;;
76423;SDS011;65257;52.104;4.268;2023-05-06T01:59:37;31.15;;;17.83;;
76423;SDS011;65257;52.104;4.268;2023-05-06T02:02:02;28.25;;;16.52;;
76423;SDS011;65257;52.104;4.268;2023-05-06T02:04:28;30.67;;;17.42;;
76423;SDS011;65257;52.104;4.268;2023-05-06T02:07:14;27.00;;;15.38;;
76423;SDS011;65257;52.104;4.268;2023-05-06T02:09:39;30.05;;;16.92;;
76423;SDS011;65257;52.104;4.268;2023-05-06T02:12:07;31.88;;;17.08;;
76423;SDS011;65257;52.104;4.268;2023-05-06T02:14:39;28.25;;;16.48;;
76423;SDS011;65257;52.104;4.268;2023-05-06T02:17:04;31.75;;;17.63;;
76423;SDS011;65257;52.104;4.268;2023-05-06T02:19:31;32.67;;;18.13;;
76423;SDS011;65257;52.104;4.268;2023-05-06T02:21:57;31.52;;;17.75;;
76423;SDS011;65257;52.104;4.268;2023-05-06T02:24:23;32.65;;;17.55;;
76423;SDS011;65257;52.104;4.268;2023-05-06T02:26:49;31.50;;;18.00;;
76423;SDS011;65257;52.104;4.268;2023-05-06T02:29:14;34.08;;;18.35;;
76423;SDS011;65257;52.104;4.268;2023-05-06T02:31:39;33.70;;;17.88;;
76423;SDS011;65257;52.104;4.268;2023-05-06T02:34:08;31.27;;;16.92;;
76423;SDS011;65257;52.104;4.268;2023-05-06T02:36:37;33.60;;;17.83;;
76423;SDS011;65257;52.104;4.268;2023-05-06T02:39:04;29.15;;;16.23;;
76423;SDS011;65257;52.104;4.268;2023-05-06T02:41:29;32.35;;;17.35;;
76423;SDS011;65257;52.104;4.268;2023-05-06T02:43:55;32.60;;;16.98;;
76423;SDS011;65257;52.104;4.268;2023-05-06T02:46:24;32.50;;;17.63;;
76423;SDS011;65257;52.104;4.268;2023-05-06T02:48:49;29.33;;;16.75;;
76423;SDS011;65257;52.104;4.268;2023-05-06T02:51:15;32.33;;;17.45;;
76423;SDS011;65257;52.104;4.268;2023-05-06T02:53:43;29.52;;;17.58;;
76423;SDS011;65257;52.104;4.268;2023-05-06T02:56:09;29.20;;;16.63;;
76423;SDS011;65257;52.104;4.268;2023-05-06T02:58:35;28.23;;;16.88;;
76423;SDS011;65257;52.104;4.268;2023-05-06T03:01:01;27.95;;;16.13;;
76423;SDS011;65257;52.104;4.268;2023-05-06T03:03:26;32.42;;;16.15;;
76423;SDS011;65257;52.104;4.268;2023-05-06T03:05:52;28.55;;;16.15;;
76423;SDS011;65257;52.104;4.268;2023-05-06T03:08:19;29.88;;;16.33;;
76423;SDS011;65257;52.104;4.268;2023-05-06T03:10:44;28.17;;;16.13;;
76423;SDS011;65257;52.104;4.268;2023-05-06T03:13:13;36.05;;;17.73;;
76423;SDS011;65257;52.104;4.268;2023-05-06T03:15:39;30.13;;;16.48;;
76423;SDS011;65257;52.104;4.268;2023-05-06T03:18:05;34.42;;;17.23;;
76423;SDS011;65257;52.104;4.268;2023-05-06T03:20:30;32.78;;;17.48;;
76423;SDS011;65257;52.104;4.268;2023-05-06T03:22:56;31.50;;;16.67;;
76423;SDS011;65257;52.104;4.268;2023-05-06T03:25:22;30.73;;;17.30;;
76423;SDS011;65257;52.104;4.268;2023-05-06T03:27:47;30.92;;;17.70;;
76423;SDS011;65257;52.104;4.268;2023-05-06T03:30:16;29.83;;;18.02;;
76423;SDS011;65257;52.104;4.268;2023-05-06T03:32:41;37.47;;;17.73;;
76423;SDS011;65257;52.104;4.268;2023-05-06T03:35:13;32.55;;;17.42;;
76423;SDS011;65257;52.104;4.268;2023-05-06T03:37:45;31.52;;;17.55;;
76423;SDS011;65257;52.104;4.268;2023-05-06T03:40:11;35.53;;;18.95;;
76423;SDS011;65257;52.104;4.268;2023-05-06T03:42:37;34.60;;;18.20;;
76423;SDS011;65257;52.104;4.268;2023-05-06T03:45:03;34.17;;;16.92;;
76423;SDS011;65257;52.104;4.268;2023-05-06T03:47:30;34.95;;;18.13;;
76423;SDS011;65257;52.104;4.268;2023-05-06T03:50:01;35.30;;;17.88;;
76423;SDS011;65257;52.104;4.268;2023-05-06T03:52:31;30.40;;;17.35;;
76423;SDS011;65257;52.104;4.268;2023-05-06T03:54:58;34.53;;;17.40;;
76423;SDS011;65257;52.104;4.268;2023-05-06T03:57:23;30.00;;;17.25;;
76423;SDS011;65257;52.104;4.268;2023-05-06T03:59:51;29.60;;;17.95;;
76423;SDS011;65257;52.104;4.268;2023-05-06T04:02:20;32.30;;;17.67;;
76423;SDS011;65257;52.104;4.268;2023-05-06T04:04:45;30.50;;;16.55;;
76423;SDS011;65257;52.104;4.268;2023-05-06T04:07:12;32.78;;;17.30;;
76423;SDS011;65257;52.104;4.268;2023-05-06T04:09:40;36.47;;;19.50;;
76423;SDS011;65257;52.104;4.268;2023-05-06T04:12:06;35.45;;;19.17;;
76423;SDS011;65257;52.104;4.268;2023-05-06T04:14:36;37.00;;;19.95;;
76423;SDS011;65257;52.104;4.268;2023-05-06T04:17:03;40.58;;;20.13;;
76423;SDS011;65257;52.104;4.268;2023-05-06T04:19:29;36.70;;;20.73;;
76423;SDS011;65257;52.104;4.268;2023-05-06T04:21:56;41.75;;;21.67;;
76423;SDS011;65257;52.104;4.268;2023-05-06T04:24:22;38.13;;;19.52;;
76423;SDS011;65257;52.104;4.268;2023-05-06T04:26:48;37.70;;;19.67;;
76423;SDS011;65257;52.104;4.268;2023-05-06T04:29:17;42.60;;;20.15;;
76423;SDS011;65257;52.104;4.268;2023-05-06T04:31:42;36.15;;;21.40;;
76423;SDS011;65257;52.104;4.268;2023-05-06T04:34:08;40.33;;;19.98;;
76423;SDS011;65257;52.104;4.268;2023-05-06T04:36:34;36.53;;;20.33;;
76423;SDS011;65257;52.104;4.268;2023-05-06T04:39:01;36.45;;;18.50;;
76423;SDS011;65257;52.104;4.268;2023-05-06T04:41:33;34.05;;;18.23;;
76423;SDS011;65257;52.104;4.268;2023-05-06T04:44:02;37.97;;;20.13;;
76423;SDS011;65257;52.104;4.268;2023-05-06T04:46:36;37.70;;;19.42;;
76423;SDS011;65257;52.104;4.268;2023-05-06T04:49:03;34.92;;;18.60;;
76423;SDS011;65257;52.104;4.268;2023-05-06T04:51:28;33.80;;;18.48;;
76423;SDS011;65257;52.104;4.268;2023-05-06T04:53:56;34.25;;;18.73;;
76423;SDS011;65257;52.104;4.268;2023-05-06T04:56:25;36.47;;;19.38;;
76423;SDS011;65257;52.104;4.268;2023-05-06T04:58:51;38.05;;;19.25;;
76423;SDS011;65257;52.104;4.268;2023-05-06T05:01:16;32.03;;;18.00;;
76423;SDS011;65257;52.104;4.268;2023-05-06T05:03:43;32.95;;;18.23;;
76423;SDS011;65257;52.104;4.268;2023-05-06T05:06:08;31.10;;;18.10;;
76423;SDS011;65257;52.104;4.268;2023-05-06T05:08:35;33.45;;;19.35;;
76423;SDS011;65257;52.104;4.268;2023-05-06T05:11:00;35.03;;;19.30;;
76423;SDS011;65257;52.104;4.268;2023-05-06T05:13:29;39.03;;;19.45;;
76423;SDS011;65257;52.104;4.268;2023-05-06T05:15:54;33.90;;;18.27;;
76423;SDS011;65257;52.104;4.268;2023-05-06T05:18:21;38.22;;;19.85;;
76423;SDS011;65257;52.104;4.268;2023-05-06T05:20:50;34.85;;;18.33;;
76423;SDS011;65257;52.104;4.268;2023-05-06T05:23:37;36.22;;;20.20;;
76423;SDS011;65257;52.104;4.268;2023-05-06T05:26:02;33.17;;;18.30;;
76423;SDS011;65257;52.104;4.268;2023-05-06T05:28:27;37.38;;;20.52;;
76423;SDS011;65257;52.104;4.268;2023-05-06T05:31:05;37.00;;;19.25;;
76423;SDS011;65257;52.104;4.268;2023-05-06T05:33:33;35.72;;;19.17;;
76423;SDS011;65257;52.104;4.268;2023-05-06T05:36:05;36.80;;;20.30;;
76423;SDS011;65257;52.104;4.268;2023-05-06T05:38:39;37.63;;;19.63;;
76423;SDS011;65257;52.104;4.268;2023-05-06T05:41:10;37.53;;;19.10;;
76423;SDS011;65257;52.104;4.268;2023-05-06T05:43:36;38.88;;;19.77;;
76423;SDS011;65257;52.104;4.268;2023-05-06T05:46:02;41.78;;;19.92;;
76423;SDS011;65257;52.104;4.268;2023-05-06T05:48:34;35.60;;;18.75;;
76423;SDS011;65257;52.104;4.268;2023-05-06T05:51:00;37.40;;;20.20;;
76423;SDS011;65257;52.104;4.268;2023-05-06T05:53:29;34.78;;;19.30;;
76423;SDS011;65257;52.104;4.268;2023-05-06T05:55:55;34.95;;;18.73;;
76423;SDS011;65257;52.104;4.268;2023-05-06T05:58:23;36.03;;;19.38;;
76423;SDS011;65257;52.104;4.268;2023-05-06T06:00:49;31.88;;;18.65;;
76423;SDS011;65257;52.104;4.268;2023-05-06T06:03:16;30.73;;;18.27;;
76423;SDS011;65257;52.104;4.268;2023-05-06T06:05:42;31.83;;;18.27;;
76423;SDS011;65257;52.104;4.268;2023-05-06T06:08:07;25.90;;;16.13;;
76423;SDS011;65257;52.104;4.268;2023-05-06T06:10:33;32.53;;;17.65;;
76423;SDS011;65257;52.104;4.268;2023-05-06T06:13:01;29.30;;;17.10;;
76423;SDS011;65257;52.104;4.268;2023-05-06T06:15:28;28.38;;;15.98;;
76423;SDS011;65257;52.104;4.268;2023-05-06T06:17:54;31.38;;;16.23;;
76423;SDS011;65257;52.104;4.268;2023-05-06T06:20:19;35.78;;;18.27;;
76423;SDS011;65257;52.104;4.268;2023-05-06T06:22:45;32.97;;;18.92;;
76423;SDS011;65257;52.104;4.268;2023-05-06T06:25:10;31.85;;;18.00;;
76423;SDS011;65257;52.104;4.268;2023-05-06T06:27:39;35.03;;;19.15;;
76423;SDS011;65257;52.104;4.268;2023-05-06T06:30:09;37.88;;;19.05;;
76423;SDS011;65257;52.104;4.268;2023-05-06T06:32:35;34.72;;;19.02;;
76423;SDS011;65257;52.104;4.268;2023-05-06T06:35:00;37.50;;;19.10;;
76423;SDS011;65257;52.104;4.268;2023-05-06T06:37:26;34.15;;;19.27;;
76423;SDS011;65257;52.104;4.268;2023-05-06T06:40:00;34.90;;;19.52;;
76423;SDS011;65257;52.104;4.268;2023-05-06T06:42:29;34.72;;;18.45;;
76423;SDS011;65257;52.104;4.268;2023-05-06T06:44:54;33.90;;;18.23;;
76423;SDS011;65257;52.104;4.268;2023-05-06T06:47:24;39.42;;;19.70;;
76423;SDS011;65257;52.104;4.268;2023-05-06T06:49:52;39.70;;;19.20;;
76423;SDS011;65257;52.104;4.268;2023-05-06T06:52:18;37.25;;;18.38;;
76423;SDS011;65257;52.104;4.268;2023-05-06T06:54:43;37.22;;;18.38;;
76423;SDS011;65257;52.104;4.268;2023-05-06T06:57:19;34.60;;;18.65;;
76423;SDS011;65257;52.104;4.268;2023-05-06T06:59:50;33.55;;;16.63;;
76423;SDS011;65257;52.104;4.268;2023-05-06T07:02:17;35.30;;;17.45;;
76423;SDS011;65257;52.104;4.268;2023-05-06T07:04:43;32.58;;;16.92;;
76423;SDS011;65257;52.104;4.268;2023-05-06T07:07:09;33.03;;;17.08;;
76423;SDS011;65257;52.104;4.268;2023-05-06T07:09:35;28.30;;;17.33;;
76423;SDS011;65257;52.104;4.268;2023-05-06T07:12:09;28.65;;;16.77;;
76423;SDS011;65257;52.104;4.268;2023-05-06T07:14:35;32.65;;;16.92;;
76423;SDS011;65257;52.104;4.268;2023-05-06T07:17:01;32.50;;;17.45;;
76423;SDS011;65257;52.104;4.268;2023-05-06T07:19:27;32.17;;;17.27;;
76423;SDS011;65257;52.104;4.268;2023-05-06T07:21:53;37.00;;;17.85;;
76423;SDS011;65257;52.104;4.268;2023-05-06T07:24:19;32.83;;;18.00;;
76423;SDS011;65257;52.104;4.268;2023-05-06T07:26:46;35.13;;;18.58;;
76423;SDS011;65257;52.104;4.268;2023-05-06T07:29:12;32.33;;;17.77;;
76423;SDS011;65257;52.104;4.268;2023-05-06T07:31:46;38.38;;;17.25;;
76423;SDS011;65257;52.104;4.268;2023-05-06T07:34:14;42.22;;;19.48;;
76423;SDS011;65257;52.104;4.268;2023-05-06T07:36:40;33.55;;;18.00;;
76423;SDS011;65257;52.104;4.268;2023-05-06T07:39:07;33.75;;;17.88;;
76423;SDS011;65257;52.104;4.268;2023-05-06T07:41:33;33.00;;;17.48;;
76423;SDS011;65257;52.104;4.268;2023-05-06T07:43:58;29.27;;;17.63;;
76423;SDS011;65257;52.104;4.268;2023-05-06T07:46:42;32.90;;;17.95;;
76423;SDS011;65257;52.104;4.268;2023-05-06T07:49:08;30.45;;;18.33;;
76423;SDS011;65257;52.104;4.268;2023-05-06T07:51:33;30.88;;;17.33;;
76423;SDS011;65257;52.104;4.268;2023-05-06T07:54:04;34.08;;;17.10;;
76423;SDS011;65257;52.104;4.268;2023-05-06T07:56:30;36.22;;;17.70;;
76423;SDS011;65257;52.104;4.268;2023-05-06T07:58:55;36.58;;;20.42;;
76423;SDS011;65257;52.104;4.268;2023-05-06T08:01:23;33.17;;;18.35;;
76423;SDS011;65257;52.104;4.268;2023-05-06T08:03:49;28.95;;;18.25;;
76423;SDS011;65257;52.104;4.268;2023-05-06T08:06:15;32.20;;;19.20;;
76423;SDS011;65257;52.104;4.268;2023-05-06T08:08:40;31.10;;;19.02;;
76423;SDS011;65257;52.104;4.268;2023-05-06T08:11:10;30.85;;;18.60;;
76423;SDS011;65257;52.104;4.268;2023-05-06T08:13:36;31.67;;;19.58;;
76423;SDS011;65257;52.104;4.268;2023-05-06T08:16:01;31.17;;;18.70;;
76423;SDS011;65257;52.104;4.268;2023-05-06T08:18:31;33.35;;;20.70;;
76423;SDS011;65257;52.104;4.268;2023-05-06T08:21:00;34.15;;;20.00;;
76423;SDS011;65257;52.104;4.268;2023-05-06T08:23:31;35.00;;;20.08;;
76423;SDS011;65257;52.104;4.268;2023-05-06T08:26:05;37.65;;;21.05;;
76423;SDS011;65257;52.104;4.268;2023-05-06T08:28:31;33.00;;;18.95;;
76423;SDS011;65257;52.104;4.268;2023-05-06T08:30:59;30.83;;;18.17;;
76423;SDS011;65257;52.104;4.268;2023-05-06T08:33:30;30.00;;;18.63;;
76423;SDS011;65257;52.104;4.268;2023-05-06T08:35:56;31.23;;;18.92;;
76423;SDS011;65257;52.104;4.268;2023-05-06T08:38:28;33.83;;;20.60;;
76423;SDS011;65257;52.104;4.268;2023-05-06T08:40:57;33.47;;;19.23;;
76423;SDS011;65257;52.104;4.268;2023-05-06T08:43:25;32.22;;;19.17;;
76423;SDS011;65257;52.104;4.268;2023-05-06T08:45:53;26.48;;;17.85;;
76423;SDS011;65257;52.104;4.268;2023-05-06T08:48:27;32.88;;;19.00;;
76423;SDS011;65257;52.104;4.268;2023-05-06T08:50:59;32.13;;;17.40;;
76423;SDS011;65257;52.104;4.268;2023-05-06T08:53:28;32.45;;;16.85;;
76423;SDS011;65257;52.104;4.268;2023-05-06T08:56:00;27.42;;;16.20;;
76423;SDS011;65257;52.104;4.268;2023-05-06T08:58:32;27.35;;;17.02;;
76423;SDS011;65257;52.104;4.268;2023-05-06T09:01:04;31.55;;;17.35;;
76423;SDS011;65257;52.104;4.268;2023-05-06T09:03:36;30.20;;;17.52;;
76423;SDS011;65257;52.104;4.268;2023-05-06T09:06:02;35.63;;;18.35;;
76423;SDS011;65257;52.104;4.268;2023-05-06T09:08:29;29.52;;;17.25;;
76423;SDS011;65257;52.104;4.268;2023-05-06T09:10:54;32.30;;;17.42;;
76423;SDS011;65257;52.104;4.268;2023-05-06T09:13:21;29.30;;;15.90;;
76423;SDS011;65257;52.104;4.268;2023-05-06T09:15:47;27.75;;;17.10;;
76423;SDS011;65257;52.104;4.268;2023-05-06T09:18:13;32.05;;;16.77;;
76423;SDS011;65257;52.104;4.268;2023-05-06T09:20:44;31.90;;;17.88;;
76423;SDS011;65257;52.104;4.268;2023-05-06T09:23:11;33.78;;;17.88;;
76423;SDS011;65257;52.104;4.268;2023-05-06T09:25:50;31.05;;;16.05;;
76423;SDS011;65257;52.104;4.268;2023-05-06T09:28:15;28.42;;;15.43;;
76423;SDS011;65257;52.104;4.268;2023-05-06T09:30:56;32.60;;;15.82;;
76423;SDS011;65257;52.104;4.268;2023-05-06T09:33:22;32.20;;;17.23;;
76423;SDS011;65257;52.104;4.268;2023-05-06T09:35:48;27.05;;;16.42;;
76423;SDS011;65257;52.104;4.268;2023-05-06T09:38:16;28.00;;;15.90;;
76423;SDS011;65257;52.104;4.268;2023-05-06T09:40:51;32.17;;;15.70;;
76423;SDS011;65257;52.104;4.268;2023-05-06T09:43:20;26.98;;;15.80;;
76423;SDS011;65257;52.104;4.268;2023-05-06T09:45:45;27.95;;;15.10;;
76423;SDS011;65257;52.104;4.268;2023-05-06T09:48:12;29.10;;;16.17;;
76423;SDS011;65257;52.104;4.268;2023-05-06T09:50:39;25.02;;;15.45;;
76423;SDS011;65257;52.104;4.268;2023-05-06T09:53:10;24.05;;;15.13;;
76423;SDS011;65257;52.104;4.268;2023-05-06T09:55:40;25.75;;;14.48;;
76423;SDS011;65257;52.104;4.268;2023-05-06T09:58:06;21.50;;;14.02;;
76423;SDS011;65257;52.104;4.268;2023-05-06T10:00:35;24.25;;;14.75;;
76423;SDS011;65257;52.104;4.268;2023-05-06T10:03:07;21.70;;;13.65;;
76423;SDS011;65257;52.104;4.268;2023-05-06T10:05:35;22.35;;;13.15;;
76423;SDS011;65257;52.104;4.268;2023-05-06T10:08:07;21.70;;;14.02;;
76423;SDS011;65257;52.104;4.268;2023-05-06T10:10:39;23.95;;;12.70;;
76423;SDS011;65257;52.104;4.268;2023-05-06T10:13:07;19.55;;;12.30;;
76423;SDS011;65257;52.104;4.268;2023-05-06T10:15:32;18.65;;;12.65;;
76423;SDS011;65257;52.104;4.268;2023-05-06T10:17:58;22.52;;;12.57;;
76423;SDS011;65257;52.104;4.268;2023-05-06T10:20:37;25.20;;;12.00;;
76423;SDS011;65257;52.104;4.268;2023-05-06T10:23:24;20.98;;;12.23;;
76423;SDS011;65257;52.104;4.268;2023-05-06T10:26:05;20.88;;;13.32;;
76423;SDS011;65257;52.104;4.268;2023-05-06T10:28:51;18.33;;;10.95;;
76423;SDS011;65257;52.104;4.268;2023-05-06T10:31:20;21.45;;;11.27;;
76423;SDS011;65257;52.104;4.268;2023-05-06T10:33:47;19.65;;;10.40;;
76423;SDS011;65257;52.104;4.268;2023-05-06T10:36:21;22.30;;;11.07;;
76423;SDS011;65257;52.104;4.268;2023-05-06T10:38:51;23.55;;;11.45;;
76423;SDS011;65257;52.104;4.268;2023-05-06T10:41:29;19.60;;;9.70;;
76423;SDS011;65257;52.104;4.268;2023-05-06T10:43:56;19.65;;;9.65;;
76423;SDS011;65257;52.104;4.268;2023-05-06T10:46:28;14.57;;;5.82;;
76423;SDS011;65257;52.104;4.268;2023-05-06T10:51:33;12.98;;;5.78;;
76423;SDS011;65257;52.104;4.268;2023-05-06T10:54:05;15.88;;;4.45;;
76423;SDS011;65257;52.104;4.268;2023-05-06T10:59:11;12.00;;;4.25;;
76423;SDS011;65257;52.104;4.268;2023-05-06T11:01:41;12.05;;;3.50;;
76423;SDS011;65257;52.104;4.268;2023-05-06T11:04:17;13.57;;;4.00;;
76423;SDS011;65257;52.104;4.268;2023-05-06T11:06:44;14.93;;;3.97;;
76423;SDS011;65257;52.104;4.268;2023-05-06T11:09:26;13.35;;;4.38;;
76423;SDS011;65257;52.104;4.268;2023-05-06T11:12:04;16.83;;;4.97;;
76423;SDS011;65257;52.104;4.268;2023-05-06T11:14:37;14.23;;;5.25;;
76423;SDS011;65257;52.104;4.268;2023-05-06T11:17:04;12.38;;;4.50;;
76423;SDS011;65257;52.104;4.268;2023-05-06T11:19:35;10.85;;;3.50;;
76423;SDS011;65257;52.104;4.268;2023-05-06T11:22:03;12.30;;;5.10;;
76423;SDS011;65257;52.104;4.268;2023-05-06T11:24:45;13.30;;;6.00;;
76423;SDS011;65257;52.104;4.268;2023-05-06T11:27:12;22.75;;;7.50;;
76423;SDS011;65257;52.104;4.268;2023-05-06T11:29:41;18.33;;;6.70;;
76423;SDS011;65257;52.104;4.268;2023-05-06T11:32:19;22.10;;;6.03;;
76423;SDS011;65257;52.104;4.268;2023-05-06T11:34:46;15.85;;;6.32;;
76423;SDS011;65257;52.104;4.268;2023-05-06T11:37:12;16.98;;;5.32;;
76423;SDS011;65257;52.104;4.268;2023-05-06T11:39:51;16.17;;;7.22;;
76423;SDS011;65257;52.104;4.268;2023-05-06T11:42:24;14.48;;;6.30;;
76423;SDS011;65257;52.104;4.268;2023-05-06T11:44:55;17.20;;;8.48;;
76423;SDS011;65257;52.104;4.268;2023-05-06T11:47:28;20.92;;;10.15;;
76423;SDS011;65257;52.104;4.268;2023-05-06T11:50:10;19.83;;;11.63;;
76423;SDS011;65257;52.104;4.268;2023-05-06T11:52:36;20.85;;;11.15;;
76423;SDS011;65257;52.104;4.268;2023-05-06T11:55:06;18.85;;;10.63;;
76423;SDS011;65257;52.104;4.268;2023-05-06T11:57:34;19.23;;;12.45;;
76423;SDS011;65257;52.104;4.268;2023-05-06T11:59:59;20.42;;;12.10;;
76423;SDS011;65257;52.104;4.268;2023-05-06T12:02:32;20.02;;;10.30;;
76423;SDS011;65257;52.104;4.268;2023-05-06T12:04:59;15.63;;;8.68;;
76423;SDS011;65257;52.104;4.268;2023-05-06T12:07:26;18.63;;;7.90;;
76423;SDS011;65257;52.104;4.268;2023-05-06T12:09:55;18.92;;;7.82;;
76423;SDS011;65257;52.104;4.268;2023-05-06T12:12:26;15.45;;;8.50;;
76423;SDS011;65257;52.104;4.268;2023-05-06T12:14:52;20.85;;;9.55;;
76423;SDS011;65257;52.104;4.268;2023-05-06T12:17:18;19.75;;;8.80;;
76423;SDS011;65257;52.104;4.268;2023-05-06T12:19:45;18.92;;;7.93;;
76423;SDS011;65257;52.104;4.268;2023-05-06T12:22:20;24.27;;;9.55;;
76423;SDS011;65257;52.104;4.268;2023-05-06T12:24:49;23.98;;;9.65;;
76423;SDS011;65257;52.104;4.268;2023-05-06T12:27:34;14.43;;;7.38;;
76423;SDS011;65257;52.104;4.268;2023-05-06T12:30:03;15.80;;;7.60;;
76423;SDS011;65257;52.104;4.268;2023-05-06T12:35:33;15.32;;;7.88;;
76423;SDS011;65257;52.104;4.268;2023-05-06T12:40:51;15.90;;;6.10;;
76423;SDS011;65257;52.104;4.268;2023-05-06T12:43:35;17.05;;;5.13;;
76423;SDS011;65257;52.104;4.268;2023-05-06T12:46:04;18.20;;;6.60;;
76423;SDS011;65257;52.104;4.268;2023-05-06T12:48:34;9.95;;;4.65;;
76423;SDS011;65257;52.104;4.268;2023-05-06T12:50:59;11.52;;;3.80;;
76423;SDS011;65257;52.104;4.268;2023-05-06T12:53:51;10.23;;;3.97;;
76423;SDS011;65257;52.104;4.268;2023-05-06T12:56:23;12.63;;;3.53;;
76423;SDS011;65257;52.104;4.268;2023-05-06T12:59:01;10.63;;;3.00;;
76423;SDS011;65257;52.104;4.268;2023-05-06T13:01:30;11.27;;;2.67;;
76423;SDS011;65257;52.104;4.268;2023-05-06T13:03:55;9.88;;;3.15;;
76423;SDS011;65257;52.104;4.268;2023-05-06T13:06:22;10.80;;;2.67;;
76423;SDS011;65257;52.104;4.268;2023-05-06T13:08:47;13.15;;;2.70;;
76423;SDS011;65257;52.104;4.268;2023-05-06T13:11:13;10.77;;;3.17;;
76423;SDS011;65257;52.104;4.268;2023-05-06T13:13:39;10.77;;;3.65;;
76423;SDS011;65257;52.104;4.268;2023-05-06T13:16:05;12.30;;;4.28;;
76423;SDS011;65257;52.104;4.268;2023-05-06T13:18:31;8.65;;;2.97;;
76423;SDS011;65257;52.104;4.268;2023-05-06T13:20:57;17.25;;;3.72;;
76423;SDS011;65257;52.104;4.268;2023-05-06T13:23:24;13.75;;;3.97;;
76423;SDS011;65257;52.104;4.268;2023-05-06T13:25:50;12.32;;;4.03;;
76423;SDS011;65257;52.104;4.268;2023-05-06T13:28:15;16.08;;;4.32;;
76423;SDS011;65257;52.104;4.268;2023-05-06T13:30:41;22.35;;;4.70;;
76423;SDS011;65257;52.104;4.268;2023-05-06T13:33:06;10.73;;;4.05;;
76423;SDS011;65257;52.104;4.268;2023-05-06T13:35:32;16.23;;;6.78;;
76423;SDS011;65257;52.104;4.268;2023-05-06T13:37:57;20.40;;;6.15;;
76423;SDS011;65257;52.104;4.268;2023-05-06T13:40:23;11.52;;;4.95;;
76423;SDS011;65257;52.104;4.268;2023-05-06T13:42:48;14.52;;;5.07;;
76423;SDS011;65257;52.104;4.268;2023-05-06T13:45:13;9.82;;;4.65;;
76423;SDS011;65257;52.104;4.268;2023-05-06T13:47:39;16.58;;;5.35;;
76423;SDS011;65257;52.104;4.268;2023-05-06T13:50:07;11.35;;;5.25;;
76423;SDS011;65257;52.104;4.268;2023-05-06T13:52:33;16.25;;;5.78;;
76423;SDS011;65257;52.104;4.268;2023-05-06T13:54:58;14.68;;;6.00;;
76423;SDS011;65257;52.104;4.268;2023-05-06T13:57:24;17.50;;;5.88;;
76423;SDS011;65257;52.104;4.268;2023-05-06T13:59:50;14.10;;;5.65;;
76423;SDS011;65257;52.104;4.268;2023-05-06T14:02:15;17.38;;;5.55;;
76423;SDS011;65257;52.104;4.268;2023-05-06T14:04:41;15.85;;;6.22;;
76423;SDS011;65257;52.104;4.268;2023-05-06T14:07:10;18.02;;;4.93;;
76423;SDS011;65257;52.104;4.268;2023-05-06T14:09:35;18.73;;;5.53;;
76423;SDS011;65257;52.104;4.268;2023-05-06T14:12:26;12.13;;;5.18;;
76423;SDS011;65257;52.104;4.268;2023-05-06T14:14:52;16.55;;;5.18;;
76423;SDS011;65257;52.104;4.268;2023-05-06T14:17:18;12.82;;;4.30;;
76423;SDS011;65257;52.104;4.268;2023-05-06T14:19:44;17.13;;;5.20;;
76423;SDS011;65257;52.104;4.268;2023-05-06T14:22:09;12.15;;;5.03;;
76423;SDS011;65257;52.104;4.268;2023-05-06T14:24:35;10.90;;;4.10;;
76423;SDS011;65257;52.104;4.268;2023-05-06T14:27:00;10.10;;;4.03;;
76423;SDS011;65257;52.104;4.268;2023-05-06T14:29:26;13.40;;;4.00;;
76423;SDS011;65257;52.104;4.268;2023-05-06T14:31:51;16.38;;;4.70;;
76423;SDS011;65257;52.104;4.268;2023-05-06T14:34:18;15.60;;;4.90;;
76423;SDS011;65257;52.104;4.268;2023-05-06T14:36:43;9.23;;;4.18;;
76423;SDS011;65257;52.104;4.268;2023-05-06T14:39:10;14.70;;;4.90;;
76423;SDS011;65257;52.104;4.268;2023-05-06T14:44:06;13.18;;;4.70;;
76423;SDS011;65257;52.104;4.268;2023-05-06T14:46:31;18.75;;;4.90;;
76423;SDS011;65257;52.104;4.268;2023-05-06T14:48:57;12.55;;;4.03;;
76423;SDS011;65257;52.104;4.268;2023-05-06T14:51:22;12.38;;;4.18;;
76423;SDS011;65257;52.104;4.268;2023-05-06T14:53:48;20.48;;;5.35;;
76423;SDS011;65257;52.104;4.268;2023-05-06T14:56:13;12.65;;;4.13;;
76423;SDS011;65257;52.104;4.268;2023-05-06T14:58:42;14.05;;;4.20;;